createdAt,value
2022-08-03T04:53:36.243Z,97200.66
2022-08-03T04:56:40.255Z,97210.16
2022-08-03T04:59:34.344Z,97202.56
2022-08-03T05:02:26.046Z,97207.41
2022-08-03T05:05:14.021Z,97207.41
2022-08-03T05:08:00.864Z,97215.75
2022-08-03T05:10:53.463Z,97215.22
2022-08-03T05:13:40.363Z,97212.75
2022-08-03T05:16:28.148Z,97218.41
2022-08-03T05:19:15.220Z,97214.09
2022-08-03T05:22:02.063Z,97213.25
2022-08-03T05:24:51.432Z,97211.88
2022-08-03T05:27:38.563Z,97219.19
2022-08-03T05:33:58.156Z,97217.78
2022-08-03T05:36:51.290Z,97199.63
2022-08-03T05:39:38.431Z,97211.81
2022-08-03T05:42:25.255Z,97211.81
2022-08-03T05:45:15.426Z,97216.66
2022-08-03T05:48:02.239Z,97212.56
2022-08-03T05:50:49.071Z,97213.63
2022-08-03T05:53:35.904Z,97223.66
2022-08-03T05:56:25.170Z,97220.94
2022-08-03T05:59:36.955Z,97225.50
2022-08-03T06:02:18.787Z,97226.91
2022-08-03T06:05:06.488Z,97219.09
2022-08-03T06:07:53.603Z,97215.59
2022-08-03T06:10:40.430Z,97219.91
2022-08-03T06:13:27.309Z,97223.75
2022-08-03T06:16:14.134Z,97224.06
2022-08-03T06:19:03.798Z,97218.97
2022-08-03T06:21:50.788Z,97220.66
2022-08-03T06:24:38.432Z,97228.28
2022-08-03T06:27:40.117Z,97219.44
2022-08-03T06:30:26.979Z,97215.72
2022-08-03T06:33:13.939Z,97220.94
2022-08-03T06:36:00.801Z,97231.03
2022-08-03T06:38:47.792Z,97228.94
2022-08-03T06:41:38.054Z,97230.91
2022-08-03T06:44:31.450Z,97224.72
2022-08-03T06:47:18.287Z,97227.78
2022-08-03T06:58:11.307Z,97223.41
2022-08-03T07:26:35.153Z,97215.28
2022-08-03T07:29:34.679Z,97213.97
2022-08-03T07:36:05.161Z,97214.06
2022-08-03T07:39:16.020Z,97214.13
2022-08-03T07:42:08.015Z,97220.69
2022-08-03T07:45:07.673Z,97209.59
2022-08-03T07:48:19.099Z,97215.31
2022-08-03T07:51:28.917Z,97209.09
2022-08-03T07:54:26.034Z,97218.09
2022-08-03T07:57:14.444Z,97199.91
2022-08-03T08:00:13.000Z,97210.00
2022-08-03T08:03:03.885Z,97210.81
2022-08-03T08:05:50.751Z,97214.34
2022-08-03T08:08:38.562Z,97212.72
2022-08-03T08:11:25.349Z,97219.53
2022-08-03T08:14:15.104Z,97204.88
2022-08-03T08:17:06.960Z,97213.28
2022-08-03T08:19:54.221Z,97208.09
2022-08-03T08:22:42.402Z,97208.09
2022-08-03T08:25:31.109Z,97208.88
2022-08-03T08:28:32.523Z,97205.28
2022-08-03T08:31:50.518Z,97219.44
2022-08-03T08:34:43.257Z,97213.44
2022-08-03T08:37:30.105Z,97212.56
2022-08-03T08:48:38.818Z,97209.66
2022-08-03T08:58:53.931Z,97199.06
2022-08-03T09:04:58.598Z,97185.50
2022-08-03T09:07:55.608Z,97191.63
2022-08-03T09:10:58.228Z,97194.47
2022-08-03T09:18:50.023Z,97190.19
2022-08-03T09:21:52.542Z,97197.69
2022-08-03T09:29:13.868Z,97178.63
2022-08-03T09:36:06.468Z,97174.19
2022-08-03T09:42:47.923Z,97180.44
2022-08-03T09:54:32.566Z,97181.97
2022-08-03T10:33:50.906Z,97155.94
2022-08-03T10:50:07.105Z,97136.00
2022-08-03T10:53:36.687Z,97140.41
2022-08-03T10:56:58.480Z,97141.59
2022-08-03T11:00:50.664Z,97131.44
2022-08-03T11:07:54.550Z,97125.94
2022-08-03T11:11:10.216Z,97133.59
2022-08-03T11:14:07.626Z,97120.19
2022-08-03T11:17:08.074Z,97132.50
2022-08-03T11:20:01.547Z,97134.47
2022-08-03T11:22:49.097Z,97130.09
2022-08-03T11:26:34.088Z,97138.22
2022-08-03T11:29:28.620Z,97126.94
2022-08-03T11:32:38.244Z,97125.50
2022-08-03T11:35:36.776Z,97118.38
2022-08-03T11:38:24.671Z,97122.28
2022-08-03T11:41:33.061Z,97117.44
2022-08-03T11:44:42.302Z,97119.69
2022-08-03T11:47:36.937Z,97105.63
2022-08-03T11:50:37.991Z,97109.81
2022-08-03T11:53:24.831Z,97110.13
2022-08-03T11:56:12.852Z,97111.56
2022-08-03T11:59:19.952Z,97110.06
2022-08-03T12:02:11.962Z,97101.47
2022-08-03T12:05:02.812Z,97112.00
2022-08-03T12:08:03.846Z,97103.69
2022-08-03T12:10:54.378Z,97104.50
2022-08-03T12:14:44.636Z,97102.50
2022-08-03T12:16:54.047Z,97097.94
2022-08-03T12:19:44.018Z,97092.72
2022-08-03T12:22:37.241Z,97092.19
2022-08-03T12:25:38.651Z,97094.16
2022-08-03T12:28:36.719Z,97096.34
2022-08-03T12:31:24.857Z,97102.34
2022-08-03T12:34:12.025Z,97089.03
2022-08-03T12:36:59.579Z,97084.63
2022-08-03T12:40:00.429Z,97085.34
2022-08-03T12:42:51.074Z,97084.16
2022-08-03T12:45:37.936Z,97087.63
2022-08-03T12:48:24.740Z,97084.38
2022-08-03T12:51:14.716Z,97070.41
2022-08-03T12:54:02.307Z,97066.63
2022-08-03T12:57:01.265Z,97076.97
2022-08-03T12:59:53.224Z,97065.72
2022-08-03T13:02:46.334Z,97066.78
2022-08-03T13:05:43.691Z,97068.22
2022-08-03T13:08:33.195Z,97067.53
2022-08-03T13:11:55.900Z,97066.50
2022-08-03T13:14:32.056Z,97061.91
2022-08-03T13:17:19.564Z,97062.84
2022-08-03T13:20:07.044Z,97072.88
2022-08-03T13:22:56.931Z,97069.13
2022-08-03T13:25:55.529Z,97061.28
2022-08-03T13:28:43.154Z,97072.25
2022-08-03T13:31:29.984Z,97073.50
2022-08-03T13:34:20.892Z,97069.38
2022-08-03T13:37:13.028Z,97060.88
2022-08-03T13:40:02.707Z,97058.56
2022-08-03T13:42:50.192Z,97063.06
2022-08-03T13:45:37.028Z,97057.66
2022-08-03T13:48:37.651Z,97051.44
2022-08-03T13:56:52.836Z,97034.47
2022-08-03T13:59:39.734Z,97049.06
2022-08-03T14:02:26.683Z,97037.13
2022-08-03T14:05:13.602Z,97046.66
2022-08-03T14:08:04.890Z,97031.34
2022-08-03T14:10:56.286Z,97036.13
2022-08-03T14:13:43.353Z,97038.78
2022-08-03T14:16:30.199Z,97028.09
2022-08-03T14:19:19.902Z,97029.59
2022-08-03T14:22:11.850Z,97026.34
2022-08-03T14:25:01.715Z,97026.88
2022-08-03T14:27:50.992Z,97016.25
2022-08-03T14:30:37.888Z,97021.63
2022-08-03T14:33:25.298Z,97007.56
2022-08-03T14:36:12.136Z,97013.19
2022-08-03T14:39:01.407Z,97028.81
2022-08-03T14:41:48.545Z,97016.47
2022-08-03T14:44:35.516Z,97025.78
2022-08-03T14:47:22.632Z,97025.09
2022-08-03T14:50:36.455Z,97012.78
2022-08-03T14:53:19.671Z,97023.03
2022-08-03T14:56:10.690Z,97011.63
2022-08-03T14:58:57.824Z,97007.34
2022-08-03T15:02:04.540Z,97008.25
2022-08-03T15:04:52.274Z,97005.47
2022-08-03T15:07:39.143Z,97008.94
2022-08-03T15:10:40.499Z,96996.19
2022-08-03T15:13:31.946Z,96992.25
2022-08-03T15:16:21.133Z,96988.78
2022-08-03T15:20:01.595Z,96987.16
2022-08-03T15:22:34.716Z,96989.56
2022-08-03T15:26:28.962Z,96988.78
2022-08-03T15:28:32.680Z,96979.66
2022-08-03T15:31:23.212Z,96976.44
2022-08-03T15:34:13.524Z,96983.56
2022-08-03T15:37:00.461Z,96979.56
2022-08-03T15:39:58.865Z,96981.41
2022-08-03T15:42:47.621Z,96974.25
2022-08-03T15:45:36.592Z,96971.78
2022-08-03T15:48:26.492Z,96961.41
2022-08-03T15:51:19.229Z,96966.56
2022-08-03T15:54:07.418Z,96969.34
2022-08-03T15:56:54.221Z,96970.06
2022-08-03T15:59:42.733Z,96967.66
2022-08-03T16:02:30.542Z,96964.78
2022-08-03T16:05:17.352Z,96963.19
2022-08-03T16:08:06.283Z,96955.97
2022-08-03T16:10:56.297Z,96960.84
2022-08-03T16:14:11.849Z,96972.00
2022-08-03T16:16:50.776Z,96959.81
2022-08-03T16:19:37.538Z,96969.84
2022-08-03T16:22:25.931Z,96968.03
2022-08-03T16:25:13.814Z,96955.97
2022-08-03T16:28:08.265Z,96956.56
2022-08-03T16:30:59.617Z,96951.63
2022-08-03T16:33:46.395Z,96958.91
2022-08-03T16:36:34.963Z,96953.25
2022-08-03T16:39:21.900Z,96955.09
2022-08-03T16:42:08.875Z,96950.63
2022-08-03T16:44:55.690Z,96955.94
2022-08-03T16:47:42.527Z,96959.28
2022-08-03T16:50:29.330Z,96962.66
2022-08-03T16:53:17.201Z,96952.91
2022-08-03T16:56:20.293Z,96955.44
2022-08-03T16:59:07.677Z,96945.06
2022-08-03T17:01:55.372Z,96948.59
2022-08-03T17:04:42.545Z,96943.59
2022-08-03T17:07:36.194Z,96958.31
2022-08-03T17:10:27.019Z,96945.63
2022-08-03T17:13:22.617Z,96956.00
2022-08-03T17:16:11.858Z,96956.78
2022-08-03T17:19:02.053Z,96956.78
2022-08-03T17:21:55.025Z,96954.38
2022-08-03T17:24:46.838Z,96957.50
2022-08-03T17:28:48.301Z,96953.78
2022-08-03T17:30:59.717Z,96961.63
2022-08-03T17:33:54.661Z,96956.31
2022-08-03T17:37:03.300Z,96970.13
2022-08-03T17:39:59.618Z,96964.47
2022-08-03T17:42:50.662Z,96971.03
2022-08-03T17:45:52.274Z,96968.63
2022-08-03T17:48:42.186Z,96962.66
2022-08-03T17:51:46.492Z,96957.00
2022-08-03T17:55:55.503Z,96970.38
2022-08-03T17:58:14.989Z,96970.56
2022-08-03T18:01:59.204Z,96974.84
2022-08-03T18:04:30.635Z,96965.50
2022-08-03T18:07:22.665Z,96974.94
2022-08-03T18:10:15.564Z,96974.03
2022-08-03T18:13:16.576Z,96973.53
2022-08-03T18:16:04.734Z,96973.31
2022-08-03T18:18:56.669Z,96982.72
2022-08-03T18:22:02.905Z,96979.38
2022-08-03T18:24:50.451Z,96970.97
2022-08-03T18:27:42.449Z,96972.00
2022-08-03T18:30:32.549Z,96974.28
2022-08-03T18:34:19.597Z,96976.13
2022-08-03T18:36:30.404Z,96981.03
2022-08-03T18:39:23.012Z,96981.59
2022-08-03T18:42:19.671Z,96983.09
2022-08-03T18:45:54.936Z,96985.72
2022-08-03T18:49:14.754Z,96977.66
2022-08-03T18:52:19.390Z,96981.63
2022-08-03T18:55:20.831Z,96985.06
2022-08-03T18:58:35.615Z,96986.41
2022-08-03T19:01:58.038Z,96989.38
2022-08-03T19:04:53.789Z,96994.28
2022-08-03T19:07:45.425Z,96991.38
2022-08-03T19:10:57.730Z,96985.16
2022-08-03T19:13:50.687Z,96990.84
2022-08-03T19:16:39.514Z,96991.38
2022-08-03T19:19:27.299Z,96992.38
2022-08-03T19:22:32.803Z,97001.66
2022-08-03T19:25:19.886Z,97000.69
2022-08-03T19:28:29.606Z,97000.06
2022-08-03T19:31:20.251Z,97003.34
2022-08-03T19:34:08.049Z,97003.06
2022-08-03T19:36:56.230Z,97010.06
2022-08-03T19:39:44.323Z,96998.78
2022-08-03T19:42:46.489Z,97004.94
2022-08-03T19:46:04.880Z,96995.59
2022-08-03T19:48:58.460Z,96991.72
2022-08-03T19:52:02.346Z,96984.78
2022-08-03T19:55:08.756Z,96989.50
2022-08-03T19:58:17.799Z,96997.16
2022-08-03T20:01:24.788Z,96993.75
2022-08-03T20:04:27.809Z,96988.91
2022-08-03T20:07:30.471Z,96990.91
2022-08-03T20:10:30.244Z,96983.97
2022-08-03T20:13:48.274Z,96992.88
2022-08-03T20:16:53.220Z,96996.91
2022-08-03T20:19:59.523Z,96996.75
2022-08-03T20:22:58.047Z,96992.91
2022-08-03T20:32:35.853Z,96995.69
2022-08-03T20:39:01.913Z,96983.09
2022-08-03T20:42:12.420Z,96981.59
2022-08-03T20:45:59.683Z,96984.53
2022-08-03T20:48:36.751Z,96987.75
2022-08-03T20:51:50.448Z,96982.75
2022-08-03T20:55:04.319Z,96986.31
2022-08-03T20:58:37.823Z,96990.34
2022-08-03T21:01:40.953Z,96988.06
2022-08-03T21:04:37.704Z,96991.78
2022-08-03T21:07:45.545Z,96987.56
2022-08-03T21:10:40.714Z,96986.72
2022-08-03T21:21:55.062Z,96992.97
2022-08-03T21:27:14.703Z,96996.19
2022-08-03T21:29:59.244Z,96998.91
2022-08-03T21:33:34.194Z,96989.66
2022-08-03T21:43:56.509Z,96989.72
2022-08-03T21:47:22.109Z,96989.53
2022-08-03T21:50:18.747Z,97001.13
2022-08-03T21:57:25.532Z,96992.50
2022-08-03T22:00:59.772Z,97013.94
2022-08-03T22:04:50.337Z,96998.06
2022-08-03T22:08:08.249Z,96998.41
2022-08-03T22:11:10.777Z,97001.69
2022-08-03T22:14:34.960Z,96993.28
2022-08-03T22:17:54.850Z,96996.13
2022-08-03T22:21:01.099Z,97004.78
2022-08-03T22:24:07.160Z,96997.19
2022-08-03T22:27:51.453Z,97005.84
2022-08-03T22:30:58.375Z,97001.94
2022-08-03T22:34:06.265Z,96997.97
2022-08-03T22:37:23.958Z,96996.69
2022-08-03T22:44:22.058Z,96997.91
2022-08-03T22:47:22.676Z,97015.47
2022-08-03T22:50:34.117Z,97011.00
2022-08-03T22:53:46.456Z,97008.28
2022-08-03T22:56:47.681Z,97006.28
2022-08-03T22:59:56.582Z,97002.00
2022-08-03T23:03:00.231Z,97006.19
2022-08-03T23:06:03.574Z,97013.88
2022-08-03T23:09:09.025Z,97005.88
2022-08-03T23:12:17.440Z,97018.75
2022-08-03T23:15:21.377Z,97012.41
2022-08-03T23:18:27.612Z,97014.91
2022-08-03T23:22:00.805Z,97023.19
2022-08-03T23:24:40.485Z,97026.84
2022-08-03T23:27:34.430Z,97020.16
2022-08-03T23:30:31.189Z,97023.81
2022-08-03T23:33:26.792Z,97017.59
2022-08-03T23:36:31.873Z,97023.69
2022-08-03T23:39:27.995Z,97031.38
2022-08-03T23:42:39.160Z,97019.31
2022-08-03T23:45:28.777Z,97023.97
2022-08-03T23:48:18.752Z,97024.34
2022-08-03T23:51:13.743Z,97022.84
2022-08-03T23:54:19.303Z,97022.06
2022-08-03T23:57:42.516Z,97024.50
